createdAt,value
2022-12-26T00:02:26.068Z,9.07
2022-12-26T00:04:53.812Z,8.32
2022-12-26T00:07:23.323Z,8.43
2022-12-26T00:09:50.111Z,7.78
2022-12-26T00:12:16.740Z,6.68
2022-12-26T00:14:43.504Z,7.85
2022-12-26T00:17:12.668Z,8.52
2022-12-26T00:19:39.574Z,8.00
2022-12-26T00:22:07.974Z,8.18
2022-12-26T00:24:37.098Z,7.15
2022-12-26T00:27:09.950Z,8.30
2022-12-26T00:32:03.602Z,7.30
2022-12-26T00:34:30.743Z,7.43
2022-12-26T00:36:57.438Z,6.70
2022-12-26T00:39:26.107Z,6.53
2022-12-26T00:41:53.682Z,6.93
2022-12-26T00:44:23.196Z,6.88
2022-12-26T00:46:54.261Z,6.63
2022-12-26T00:49:23.373Z,6.45
2022-12-26T00:51:50.050Z,4.97
2022-12-26T00:54:18.084Z,4.30
2022-12-26T00:56:44.865Z,4.28
2022-12-26T00:59:11.697Z,3.20
2022-12-26T01:01:40.945Z,4.05
2022-12-26T01:04:11.217Z,3.95
2022-12-26T01:06:37.827Z,3.53
2022-12-26T01:09:04.600Z,3.40
2022-12-26T01:11:40.530Z,4.03
2022-12-26T01:14:16.078Z,3.33
2022-12-26T01:16:45.009Z,3.55
2022-12-26T01:19:12.536Z,3.60
2022-12-26T01:21:44.422Z,3.30
2022-12-26T01:24:12.276Z,3.47
2022-12-26T01:26:46.140Z,3.67
2022-12-26T01:29:16.807Z,3.88
2022-12-26T01:31:43.532Z,3.47
2022-12-26T01:34:10.206Z,3.05
2022-12-26T01:36:36.895Z,3.08
2022-12-26T01:39:03.687Z,2.90
2022-12-26T01:41:33.254Z,3.42
2022-12-26T01:44:03.763Z,3.85
2022-12-26T01:46:37.212Z,3.65
2022-12-26T01:49:32.604Z,3.90
2022-12-26T01:52:03.806Z,2.95
2022-12-26T01:54:38.035Z,2.97
2022-12-26T01:57:36.932Z,2.75
2022-12-26T02:00:28.420Z,2.25
2022-12-26T02:03:13.584Z,2.90
2022-12-26T02:05:45.250Z,2.13
2022-12-26T02:08:22.717Z,2.50
2022-12-26T02:10:56.124Z,2.50
2022-12-26T02:13:24.414Z,2.00
2022-12-26T02:15:54.203Z,2.13
2022-12-26T02:18:22.983Z,1.92
2022-12-26T02:21:17.775Z,2.30
2022-12-26T02:23:56.792Z,2.20
2022-12-26T02:26:40.530Z,1.95
2022-12-26T02:29:14.332Z,1.90
2022-12-26T02:31:43.961Z,1.77
2022-12-26T02:34:19.993Z,1.83
2022-12-26T02:37:09.840Z,2.10
2022-12-26T02:40:04.357Z,1.70
2022-12-26T02:43:17.072Z,2.05
2022-12-26T02:46:38.044Z,1.92
2022-12-26T02:50:20.090Z,1.98
2022-12-26T02:53:28.168Z,1.90
2022-12-26T02:56:24.963Z,1.67
2022-12-26T02:59:56.195Z,1.80
2022-12-26T03:11:58.345Z,1.55
2022-12-26T03:14:46.731Z,1.67
2022-12-26T03:17:50.339Z,1.80
2022-12-26T03:20:42.920Z,1.52
2022-12-26T03:23:15.481Z,1.50
2022-12-26T03:26:14.291Z,1.50
2022-12-26T03:28:49.894Z,1.40
2022-12-26T03:31:16.906Z,1.65
2022-12-26T03:34:08.201Z,1.55
2022-12-26T03:37:10.603Z,1.63
2022-12-26T03:40:16.260Z,1.50
2022-12-26T03:43:24.416Z,1.67
2022-12-26T03:46:49.385Z,1.30
2022-12-26T03:50:14.493Z,1.65
2022-12-26T03:53:46.742Z,1.73
2022-12-26T03:56:51.534Z,1.90
2022-12-26T03:59:52.314Z,1.48
2022-12-26T04:02:39.900Z,1.40
2022-12-26T04:05:32.591Z,1.70
2022-12-26T04:08:30.155Z,1.40
2022-12-26T04:11:21.201Z,1.67
2022-12-26T04:14:28.620Z,1.40
2022-12-26T04:17:32.621Z,1.40
2022-12-26T04:20:16.955Z,1.55
2022-12-26T04:23:14.555Z,1.40
2022-12-26T04:26:33.246Z,1.13
2022-12-26T04:29:23.369Z,1.42
2022-12-26T04:32:10.874Z,1.65
2022-12-26T04:35:10.033Z,1.40
2022-12-26T04:38:01.860Z,1.52
2022-12-26T04:40:53.677Z,1.27
2022-12-26T04:43:51.539Z,1.42
2022-12-26T04:46:29.463Z,1.50
2022-12-26T04:49:21.773Z,1.30
2022-12-26T04:51:59.133Z,1.27
2022-12-26T04:54:27.481Z,1.67
2022-12-26T04:56:54.608Z,1.40
2022-12-26T04:59:26.171Z,1.60
2022-12-26T05:02:12.562Z,1.40
2022-12-26T05:05:26.116Z,1.30
2022-12-26T05:10:43.059Z,1.38
2022-12-26T05:13:09.863Z,1.40
2022-12-26T05:15:58.872Z,1.55
2022-12-26T05:18:49.743Z,1.52
2022-12-26T05:22:06.140Z,1.38
2022-12-26T05:28:12.545Z,1.63
2022-12-26T05:30:39.239Z,1.52
2022-12-26T05:33:25.658Z,1.73
2022-12-26T05:35:52.513Z,1.60
2022-12-26T05:38:19.111Z,1.73
2022-12-26T05:41:09.792Z,1.58
2022-12-26T05:43:39.633Z,1.63
2022-12-26T05:46:06.535Z,1.50
2022-12-26T05:48:33.806Z,1.40
2022-12-26T05:51:02.121Z,1.80
2022-12-26T05:53:30.409Z,1.42
2022-12-26T05:56:10.303Z,1.92
2022-12-26T05:58:42.168Z,1.50
2022-12-26T06:01:19.659Z,1.40
2022-12-26T06:03:55.346Z,1.85
2022-12-26T06:06:23.785Z,1.60
2022-12-26T06:08:55.507Z,1.80
2022-12-26T06:11:27.548Z,1.58
2022-12-26T06:13:55.761Z,1.65
2022-12-26T06:16:25.043Z,1.95
2022-12-26T06:18:56.581Z,1.70
2022-12-26T06:21:30.941Z,1.40
2022-12-26T06:24:00.981Z,1.50
2022-12-26T06:26:29.237Z,1.70
2022-12-26T06:29:00.892Z,2.08
2022-12-26T06:31:27.694Z,1.98
2022-12-26T06:34:01.669Z,1.90
2022-12-26T06:36:29.339Z,2.08
2022-12-26T06:39:00.450Z,1.80
2022-12-26T06:41:27.331Z,1.85
2022-12-26T06:43:55.259Z,1.65
2022-12-26T06:46:24.426Z,1.40
2022-12-26T06:48:54.070Z,1.95
2022-12-26T06:51:27.999Z,1.85
2022-12-26T06:54:01.720Z,1.90
2022-12-26T06:56:32.602Z,1.85
2022-12-26T06:59:04.917Z,1.75
2022-12-26T07:01:33.649Z,2.17
2022-12-26T07:04:03.990Z,2.17
2022-12-26T07:06:33.425Z,2.00
2022-12-26T07:09:05.771Z,1.83
2022-12-26T07:11:36.023Z,2.17
2022-12-26T07:14:03.955Z,2.47
2022-12-26T07:16:33.491Z,1.80
2022-12-26T07:19:00.349Z,3.13
2022-12-26T07:21:31.274Z,2.15
2022-12-26T07:26:32.185Z,2.00
2022-12-26T07:29:02.683Z,2.20
2022-12-26T07:31:29.634Z,2.60
2022-12-26T07:33:56.711Z,2.60
2022-12-26T07:36:27.357Z,2.58
2022-12-26T07:38:54.093Z,2.22
2022-12-26T07:41:40.651Z,2.30
2022-12-26T07:44:09.075Z,2.35
2022-12-26T07:46:35.938Z,2.92
2022-12-26T07:49:06.886Z,3.05
2022-12-26T07:51:33.511Z,2.88
2022-12-26T07:54:04.152Z,2.28
2022-12-26T07:56:36.183Z,2.40
2022-12-26T07:59:06.325Z,2.28
2022-12-26T08:01:33.315Z,1.92
2022-12-26T08:04:00.346Z,2.78
2022-12-26T08:06:32.068Z,2.30
2022-12-26T08:08:58.781Z,2.40
2022-12-26T08:11:26.520Z,2.30
2022-12-26T08:13:54.088Z,2.75
2022-12-26T08:16:31.251Z,3.03
2022-12-26T08:18:58.289Z,3.40
2022-12-26T08:21:25.145Z,2.67
2022-12-26T08:23:53.546Z,2.33
2022-12-26T08:26:22.944Z,2.20
2022-12-26T08:28:51.133Z,2.55
2022-12-26T08:31:20.402Z,2.30
2022-12-26T08:33:55.811Z,2.80
2022-12-26T08:36:23.488Z,2.55
2022-12-26T08:38:53.231Z,2.92
2022-12-26T08:41:21.028Z,2.72
2022-12-26T08:44:25.856Z,2.92
2022-12-26T08:46:37.156Z,2.90
2022-12-26T08:49:03.983Z,2.50
2022-12-26T08:51:31.942Z,2.78
2022-12-26T08:54:03.079Z,3.00
2022-12-26T08:56:31.043Z,3.63
2022-12-26T08:59:02.296Z,3.05
2022-12-26T09:01:30.510Z,2.60
2022-12-26T09:04:06.788Z,2.58
2022-12-26T09:06:39.162Z,2.63
2022-12-26T09:11:55.158Z,2.10
2022-12-26T09:14:23.837Z,2.30
2022-12-26T09:16:54.879Z,2.40
2022-12-26T09:19:23.082Z,2.22
2022-12-26T09:22:14.769Z,2.08
2022-12-26T09:24:45.370Z,2.17
2022-12-26T09:27:20.957Z,2.95
2022-12-26T09:29:55.379Z,3.75
2022-12-26T09:32:48.208Z,1.92
2022-12-26T09:35:14.884Z,2.35
2022-12-26T09:37:41.532Z,2.13
2022-12-26T09:40:21.701Z,2.28
2022-12-26T09:43:31.215Z,2.17
2022-12-26T09:46:31.752Z,1.50
2022-12-26T09:49:13.315Z,1.95
2022-12-26T09:51:44.044Z,1.70
2022-12-26T09:54:27.482Z,2.03
2022-12-26T09:57:14.775Z,1.90
2022-12-26T09:59:53.847Z,2.05
2022-12-26T10:02:26.870Z,2.17
2022-12-26T10:04:54.402Z,1.85
2022-12-26T10:07:53.696Z,1.48
2022-12-26T10:10:33.381Z,1.80
2022-12-26T10:13:29.764Z,1.58
2022-12-26T10:16:16.154Z,2.15
2022-12-26T10:19:14.547Z,2.10
2022-12-26T10:22:45.103Z,3.10
2022-12-26T10:25:44.071Z,2.03
2022-12-26T10:28:51.907Z,2.53
2022-12-26T10:31:48.834Z,2.30
2022-12-26T10:37:46.869Z,1.83
2022-12-26T10:40:26.353Z,2.08
2022-12-26T10:43:53.216Z,1.30
2022-12-26T10:46:53.529Z,1.35
2022-12-26T10:49:28.918Z,1.10
2022-12-26T10:52:02.270Z,1.55
2022-12-26T10:54:29.953Z,1.35
2022-12-26T10:57:02.458Z,1.08
2022-12-26T10:59:56.807Z,1.20
2022-12-26T11:02:38.946Z,1.05
2022-12-26T11:08:39.151Z,1.30
2022-12-26T11:11:20.029Z,1.20
2022-12-26T11:14:01.678Z,1.20
2022-12-26T11:17:04.135Z,1.30
2022-12-26T11:19:37.053Z,1.20
2022-12-26T11:22:22.662Z,1.27
2022-12-26T11:25:21.499Z,1.30
2022-12-26T11:27:57.497Z,1.13
2022-12-26T11:30:38.031Z,1.08
2022-12-26T11:33:14.115Z,0.95
2022-12-26T11:35:58.532Z,1.00
2022-12-26T11:38:53.554Z,1.10
2022-12-26T11:41:54.202Z,1.17
2022-12-26T11:50:20.723Z,0.75
2022-12-26T11:53:06.460Z,0.75
2022-12-26T11:56:25.005Z,0.85
2022-12-26T11:59:22.886Z,0.63
2022-12-26T12:02:20.260Z,0.93
2022-12-26T12:04:54.155Z,1.30
2022-12-26T12:07:49.120Z,1.35
2022-12-26T12:10:38.398Z,1.13
2022-12-26T12:13:39.705Z,1.02
2022-12-26T12:16:30.636Z,1.80
2022-12-26T12:19:47.159Z,0.80
2022-12-26T12:22:46.656Z,0.80
2022-12-26T12:25:59.390Z,1.00
2022-12-26T12:29:13.197Z,1.15
2022-12-26T12:32:25.142Z,1.25
2022-12-26T12:35:09.928Z,1.13
2022-12-26T12:38:17.600Z,1.08
2022-12-26T12:41:15.248Z,1.13
2022-12-26T12:44:18.824Z,1.23
2022-12-26T12:49:57.434Z,0.80
2022-12-26T12:52:49.118Z,0.80
2022-12-26T12:55:56.198Z,0.77
2022-12-26T12:58:49.733Z,0.80
2022-12-26T13:01:56.363Z,0.90
2022-12-26T13:04:51.437Z,1.08
2022-12-26T13:07:46.900Z,1.30
2022-12-26T13:10:32.574Z,1.10
2022-12-26T13:13:31.415Z,0.60
2022-12-26T13:16:15.821Z,0.90
2022-12-26T13:19:16.142Z,1.30
2022-12-26T13:21:47.969Z,1.45
2022-12-26T13:24:33.652Z,1.53
2022-12-26T13:27:17.079Z,1.40
2022-12-26T13:29:51.780Z,1.00
2022-12-26T13:32:46.792Z,1.10
2022-12-26T13:35:53.074Z,1.55
2022-12-26T13:39:05.288Z,1.10
2022-12-26T13:42:42.528Z,0.95
2022-12-26T13:45:47.357Z,1.05
2022-12-26T13:48:14.790Z,1.03
2022-12-26T13:50:56.601Z,1.13
2022-12-26T13:57:40.424Z,1.13
2022-12-26T14:00:40.466Z,1.05
2022-12-26T14:03:40.657Z,1.70
2022-12-26T14:06:16.360Z,0.88
2022-12-26T14:12:53.311Z,1.17
2022-12-26T14:19:38.405Z,1.52
2022-12-26T14:22:45.939Z,1.10
2022-12-26T14:31:59.871Z,1.25
2022-12-26T14:34:37.346Z,1.40
2022-12-26T14:37:58.537Z,1.52
2022-12-26T14:40:34.975Z,1.20
2022-12-26T14:46:43.961Z,1.63
2022-12-26T14:49:35.204Z,1.40
2022-12-26T14:52:40.073Z,1.50
2022-12-26T14:55:57.283Z,1.20
2022-12-26T14:58:49.645Z,1.40
2022-12-26T15:01:25.494Z,1.55
2022-12-26T15:04:48.493Z,1.88
2022-12-26T15:08:13.773Z,2.05
2022-12-26T15:11:33.103Z,1.80
2022-12-26T15:14:37.834Z,1.95
2022-12-26T15:17:26.940Z,1.40
2022-12-26T15:20:33.366Z,1.75
2022-12-26T15:23:37.405Z,1.45
2022-12-26T15:26:41.817Z,1.95
2022-12-26T15:29:39.226Z,1.60
2022-12-26T15:32:41.128Z,1.70
2022-12-26T15:35:37.586Z,1.70
2022-12-26T15:38:23.411Z,1.67
2022-12-26T15:41:43.142Z,1.85
2022-12-26T15:44:44.315Z,1.85
2022-12-26T15:48:08.646Z,1.27
2022-12-26T15:51:01.312Z,3.20
2022-12-26T15:54:05.858Z,3.90
2022-12-26T15:56:49.353Z,1.50
2022-12-26T15:59:25.080Z,2.00
2022-12-26T16:02:28.151Z,2.05
2022-12-26T16:05:48.768Z,2.20
2022-12-26T16:08:57.317Z,1.30
2022-12-26T16:11:54.692Z,1.40
2022-12-26T16:14:45.936Z,1.55
2022-12-26T16:17:27.813Z,2.05
2022-12-26T16:20:18.682Z,1.92
2022-12-26T16:22:46.730Z,1.23
2022-12-26T16:25:21.398Z,1.25
2022-12-26T16:27:59.329Z,1.17
2022-12-26T16:30:32.913Z,1.20
2022-12-26T16:33:02.964Z,1.00
2022-12-26T16:35:44.479Z,1.38
2022-12-26T16:38:22.544Z,1.20
2022-12-26T16:41:38.947Z,1.50
2022-12-26T16:44:43.929Z,1.30
2022-12-26T16:47:14.542Z,1.88
2022-12-26T16:53:55.275Z,1.90
2022-12-26T16:56:34.858Z,1.30
2022-12-26T16:59:51.521Z,1.38
2022-12-26T17:02:34.797Z,1.33
2022-12-26T17:05:37.234Z,1.45
2022-12-26T17:08:05.318Z,1.65
2022-12-26T17:10:48.681Z,2.03
2022-12-26T17:13:23.661Z,1.30
2022-12-26T17:22:14.780Z,1.63
2022-12-26T17:43:33.433Z,2.50
2022-12-26T17:46:03.978Z,2.50
2022-12-26T17:48:35.003Z,2.50
2022-12-26T17:51:06.915Z,2.42
2022-12-26T17:53:46.201Z,2.28
2022-12-26T17:56:26.539Z,2.60
2022-12-26T17:58:57.753Z,2.30
2022-12-26T18:01:25.460Z,1.70
2022-12-26T18:03:54.590Z,1.95
2022-12-26T18:06:23.667Z,2.15
2022-12-26T18:12:03.840Z,1.48
2022-12-26T18:15:02.033Z,1.38
2022-12-26T18:17:54.863Z,2.08
2022-12-26T18:20:28.548Z,1.80
2022-12-26T18:23:01.972Z,2.78
2022-12-26T18:25:30.755Z,4.20
2022-12-26T18:28:05.676Z,3.28
2022-12-26T18:30:34.689Z,3.22
2022-12-26T18:33:04.372Z,3.30
2022-12-26T18:36:23.017Z,2.55
2022-12-26T18:38:53.278Z,2.55
2022-12-26T18:41:21.786Z,1.83
2022-12-26T18:43:50.582Z,1.83
2022-12-26T18:46:26.363Z,1.38
2022-12-26T18:48:56.006Z,1.40
2022-12-26T18:51:28.862Z,1.00
2022-12-26T18:54:04.709Z,1.30
2022-12-26T18:56:31.988Z,0.90
2022-12-26T18:59:04.644Z,0.93
2022-12-26T19:01:31.438Z,0.95
2022-12-26T19:04:02.568Z,0.70
2022-12-26T19:09:28.615Z,0.73
2022-12-26T19:12:17.770Z,0.73
2022-12-26T19:14:54.045Z,1.10
2022-12-26T19:17:26.522Z,1.00
2022-12-26T19:19:54.754Z,1.00
2022-12-26T19:22:25.838Z,0.90
2022-12-26T19:24:56.338Z,0.60
2022-12-26T19:27:24.030Z,0.85
2022-12-26T19:29:55.016Z,1.70
2022-12-26T19:32:26.441Z,0.80
2022-12-26T19:35:15.279Z,0.93
2022-12-26T19:37:42.225Z,0.90
2022-12-26T19:40:10.112Z,1.50
2022-12-26T19:42:44.816Z,1.73
2022-12-26T19:45:17.344Z,1.80
2022-12-26T19:47:47.909Z,1.42
2022-12-26T19:50:16.838Z,1.05
2022-12-26T19:52:44.745Z,1.30
2022-12-26T19:55:13.025Z,1.10
2022-12-26T19:57:41.710Z,1.05
2022-12-26T20:00:10.402Z,1.20
2022-12-26T20:02:43.053Z,1.33
2022-12-26T20:05:34.910Z,0.85
2022-12-26T20:08:05.287Z,1.10
2022-12-26T20:10:38.786Z,2.25
2022-12-26T20:13:06.375Z,1.20
2022-12-26T20:15:36.036Z,1.10
2022-12-26T20:18:03.551Z,1.08
2022-12-26T20:20:34.857Z,0.80
2022-12-26T20:23:01.565Z,0.90
2022-12-26T20:25:33.958Z,0.73
2022-12-26T20:28:00.870Z,0.80
2022-12-26T20:30:34.234Z,1.17
2022-12-26T20:33:01.161Z,0.82
2022-12-26T20:35:27.785Z,0.98
2022-12-26T20:37:54.595Z,1.38
2022-12-26T20:40:25.412Z,1.20
2022-12-26T20:42:56.676Z,1.10
2022-12-26T20:45:26.552Z,1.85
2022-12-26T20:47:57.187Z,1.50
2022-12-26T20:50:28.093Z,1.30
2022-12-26T20:52:58.627Z,1.30
2022-12-26T20:55:28.665Z,1.20
2022-12-26T20:58:08.218Z,1.10
2022-12-26T21:00:46.841Z,1.13
2022-12-26T21:03:21.485Z,0.90
2022-12-26T21:05:51.343Z,0.98
2022-12-26T21:08:18.351Z,1.10
2022-12-26T21:10:46.902Z,1.20
2022-12-26T21:13:15.032Z,1.00
2022-12-26T21:15:44.998Z,0.88
2022-12-26T21:18:11.875Z,0.90
2022-12-26T21:20:41.283Z,0.95
2022-12-26T21:26:36.376Z,0.98
2022-12-26T21:29:10.926Z,1.08
2022-12-26T21:31:42.243Z,1.05
2022-12-26T21:34:13.375Z,1.10
2022-12-26T21:36:40.887Z,2.00
2022-12-26T21:39:09.542Z,1.80
2022-12-26T21:41:39.611Z,1.27
2022-12-26T21:44:06.372Z,1.48
2022-12-26T21:46:36.393Z,1.20
2022-12-26T21:49:05.539Z,1.52
2022-12-26T21:51:32.469Z,1.20
2022-12-26T21:54:20.239Z,1.20
2022-12-26T21:56:52.788Z,1.33
2022-12-26T21:59:43.678Z,1.30
2022-12-26T22:02:33.509Z,1.77
2022-12-26T22:05:00.765Z,2.15
2022-12-26T22:07:28.439Z,2.47
2022-12-26T22:09:58.395Z,2.72
2022-12-26T22:12:48.492Z,2.90
2022-12-26T22:15:38.624Z,3.15
2022-12-26T22:18:08.183Z,0.70
2022-12-26T22:20:39.174Z,1.77
2022-12-26T22:23:09.474Z,1.88
2022-12-26T22:25:36.692Z,2.60
2022-12-26T22:28:04.394Z,2.10
2022-12-26T22:30:36.173Z,1.05
2022-12-26T22:33:03.000Z,1.40
2022-12-26T22:35:32.366Z,1.30
2022-12-26T22:38:02.323Z,1.90
2022-12-26T22:40:39.934Z,2.07
2022-12-26T22:43:06.663Z,2.20
2022-12-26T22:45:33.320Z,1.50
2022-12-26T22:48:02.935Z,1.10
2022-12-26T22:50:41.097Z,0.88
2022-12-26T22:53:09.648Z,1.85
2022-12-26T22:55:49.301Z,2.45
2022-12-26T22:58:17.592Z,2.60
2022-12-26T23:00:45.536Z,4.63
2022-12-26T23:03:15.036Z,2.33
2022-12-26T23:05:49.457Z,2.25
2022-12-26T23:08:33.885Z,16.48
2022-12-26T23:11:03.140Z,4.32
2022-12-26T23:13:30.107Z,8.75
2022-12-26T23:16:11.966Z,5.38
2022-12-26T23:19:18.109Z,3.75
2022-12-26T23:21:51.101Z,3.33
2022-12-26T23:24:22.059Z,5.32
2022-12-26T23:27:25.391Z,13.73
2022-12-26T23:32:50.190Z,14.25
2022-12-26T23:35:21.177Z,4.70
2022-12-26T23:37:48.605Z,8.70
2022-12-26T23:40:19.310Z,2.25
2022-12-26T23:42:46.761Z,3.53
2022-12-26T23:45:16.728Z,5.50
2022-12-26T23:47:44.881Z,4.07
2022-12-26T23:50:13.592Z,3.55
2022-12-26T23:52:41.242Z,1.50
2022-12-26T23:55:11.103Z,1.65
2022-12-26T23:57:37.970Z,1.30
